createdAt,value
2022-11-17T00:01:10.679Z,380.60
2022-11-17T00:03:37.452Z,396.67
2022-11-17T00:06:04.077Z,395.07
2022-11-17T00:08:30.477Z,383.30
2022-11-17T00:10:56.877Z,382.43
2022-11-17T00:13:23.275Z,402.63
2022-11-17T00:15:49.709Z,400.03
2022-11-17T00:18:16.117Z,382.47
2022-11-17T00:20:42.530Z,377.97
2022-11-17T00:23:08.955Z,399.03
2022-11-17T00:25:35.383Z,400.43
2022-11-17T00:28:01.817Z,382.23
2022-11-17T00:30:28.393Z,381.93
2022-11-17T00:32:54.891Z,403.57
2022-11-17T00:35:21.288Z,381.53
2022-11-17T00:37:47.832Z,385.83
2022-11-17T00:40:14.290Z,395.33
2022-11-17T00:42:40.685Z,384.50
2022-11-17T00:45:07.086Z,398.63
2022-11-17T00:47:33.469Z,392.87
2022-11-17T00:49:59.857Z,383.63
2022-11-17T00:52:26.252Z,397.87
2022-11-17T00:54:52.660Z,386.10
2022-11-17T00:57:19.252Z,397.63
2022-11-17T00:59:45.629Z,394.67
2022-11-17T01:02:12.137Z,381.30
2022-11-17T01:04:38.532Z,379.93
2022-11-17T01:07:04.993Z,400.57
2022-11-17T01:09:31.446Z,398.27
2022-11-17T01:11:57.898Z,400.33
2022-11-17T01:14:24.295Z,380.07
2022-11-17T01:16:50.720Z,377.73
2022-11-17T01:19:17.123Z,397.47
2022-11-17T01:21:43.526Z,381.33
2022-11-17T01:24:09.921Z,379.23
2022-11-17T01:26:36.362Z,377.03
2022-11-17T01:29:02.786Z,395.73
2022-11-17T01:31:29.211Z,379.33
2022-11-17T01:33:55.598Z,374.67
2022-11-17T01:36:21.990Z,379.37
2022-11-17T01:38:48.575Z,403.80
2022-11-17T01:41:14.963Z,381.83
2022-11-17T01:43:41.385Z,379.50
2022-11-17T01:46:07.774Z,405.00
2022-11-17T01:48:34.185Z,404.47
2022-11-17T01:51:00.627Z,389.57
2022-11-17T01:53:27.144Z,393.30
2022-11-17T01:55:53.556Z,394.67
2022-11-17T01:58:19.968Z,400.17
2022-11-17T02:00:46.344Z,386.83
2022-11-17T02:03:12.794Z,379.00
2022-11-17T02:05:39.271Z,400.87
2022-11-17T02:08:05.673Z,400.07
2022-11-17T02:10:32.067Z,406.20
2022-11-17T02:12:58.475Z,383.50
2022-11-17T02:15:24.861Z,399.90
2022-11-17T02:17:51.283Z,382.33
2022-11-17T02:20:17.673Z,383.50
2022-11-17T02:22:44.065Z,398.17
2022-11-17T02:25:10.464Z,393.47
2022-11-17T02:27:36.866Z,398.97
2022-11-17T02:30:03.244Z,394.23
2022-11-17T02:32:29.631Z,399.27
2022-11-17T02:34:56.009Z,393.03
2022-11-17T02:37:22.417Z,379.07
2022-11-17T02:39:48.854Z,391.20
2022-11-17T02:42:15.261Z,379.57
2022-11-17T02:44:41.664Z,393.37
2022-11-17T02:47:08.145Z,391.90
2022-11-17T02:49:34.563Z,394.33
2022-11-17T02:52:01.074Z,398.67
2022-11-17T02:54:27.505Z,379.93
2022-11-17T02:56:53.898Z,396.20
2022-11-17T02:59:20.306Z,398.93
2022-11-17T03:01:46.760Z,392.77
2022-11-17T03:04:13.168Z,380.97
2022-11-17T03:06:39.568Z,404.87
2022-11-17T03:09:05.961Z,400.23
2022-11-17T03:11:32.374Z,398.23
2022-11-17T03:13:58.780Z,397.87
2022-11-17T03:16:25.168Z,376.73
2022-11-17T03:18:51.556Z,399.03
2022-11-17T03:21:17.939Z,381.37
2022-11-17T03:23:44.344Z,381.93
2022-11-17T03:26:10.731Z,400.97
2022-11-17T03:28:37.139Z,376.17
2022-11-17T03:31:03.533Z,381.27
2022-11-17T03:33:29.928Z,399.37
2022-11-17T03:35:56.300Z,379.47
2022-11-17T03:38:22.679Z,375.20
2022-11-17T03:40:49.060Z,397.47
2022-11-17T03:43:15.451Z,379.83
2022-11-17T03:45:41.834Z,397.93
2022-11-17T03:48:08.309Z,380.40
2022-11-17T03:50:34.699Z,380.57
2022-11-17T03:53:01.136Z,375.50
2022-11-17T03:55:27.533Z,377.20
2022-11-17T03:57:53.974Z,390.57
2022-11-17T04:00:20.375Z,390.07
2022-11-17T04:02:46.767Z,383.73
2022-11-17T04:05:13.170Z,398.83
2022-11-17T04:07:39.666Z,378.80
2022-11-17T04:10:06.073Z,392.27
2022-11-17T04:12:32.495Z,399.00
2022-11-17T04:14:58.887Z,380.63
2022-11-17T04:17:25.669Z,402.30
2022-11-17T04:19:52.177Z,397.43
2022-11-17T04:22:18.574Z,385.47
2022-11-17T04:24:44.989Z,400.80
2022-11-17T04:27:11.378Z,388.73
2022-11-17T04:29:37.801Z,377.60
2022-11-17T04:32:04.206Z,385.80
2022-11-17T04:34:30.618Z,385.77
2022-11-17T04:36:56.996Z,378.47
2022-11-17T04:39:23.376Z,398.20
2022-11-17T04:41:49.752Z,393.97
2022-11-17T04:44:16.168Z,401.37
2022-11-17T04:46:42.549Z,401.13
2022-11-17T04:49:08.947Z,397.53
2022-11-17T04:51:35.353Z,380.37
2022-11-17T04:54:01.776Z,398.07
2022-11-17T04:56:28.537Z,380.47
2022-11-17T04:58:54.915Z,380.83
2022-11-17T05:01:21.302Z,397.20
2022-11-17T05:03:47.688Z,377.23
2022-11-17T05:06:14.120Z,398.17
2022-11-17T05:08:40.525Z,379.27
2022-11-17T05:11:07.011Z,395.27
2022-11-17T05:13:33.844Z,378.70
2022-11-17T05:16:00.426Z,396.50
2022-11-17T05:18:26.824Z,392.87
2022-11-17T05:20:53.221Z,387.27
2022-11-17T05:23:19.631Z,374.47
2022-11-17T05:25:46.029Z,377.33
2022-11-17T05:28:12.450Z,396.33
2022-11-17T05:30:38.829Z,379.73
2022-11-17T05:33:05.252Z,376.30
2022-11-17T05:35:31.659Z,379.83
2022-11-17T05:37:58.060Z,382.20
2022-11-17T05:40:24.446Z,399.90
2022-11-17T05:42:55.871Z,382.13
2022-11-17T05:45:23.516Z,399.70
2022-11-17T05:47:49.917Z,402.00
2022-11-17T05:50:17.789Z,385.07
2022-11-17T05:52:44.171Z,386.20
2022-11-17T05:55:10.711Z,382.63
2022-11-17T05:57:37.107Z,412.87
2022-11-17T06:00:03.505Z,400.40
2022-11-17T06:02:29.912Z,400.20
2022-11-17T06:04:56.336Z,381.67
2022-11-17T06:07:22.791Z,381.00
2022-11-17T06:09:49.245Z,401.50
2022-11-17T06:12:15.730Z,382.70
2022-11-17T06:14:42.196Z,407.10
2022-11-17T06:17:08.607Z,392.83
2022-11-17T06:19:35.232Z,403.37
2022-11-17T06:22:16.842Z,382.50
2022-11-17T06:24:43.316Z,382.63
2022-11-17T06:27:09.722Z,379.27
2022-11-17T06:29:38.270Z,381.43
2022-11-17T06:32:07.363Z,378.40
2022-11-17T06:34:33.779Z,396.67
2022-11-17T06:37:00.185Z,396.50
2022-11-17T06:39:26.634Z,386.20
2022-11-17T06:41:53.029Z,395.37
2022-11-17T06:44:19.437Z,395.77
2022-11-17T06:46:49.013Z,375.53
2022-11-17T06:49:15.834Z,395.13
2022-11-17T06:51:45.128Z,388.87
2022-11-17T06:54:12.038Z,388.83
2022-11-17T06:56:38.480Z,397.53
2022-11-17T06:59:04.901Z,398.67
2022-11-17T07:01:31.354Z,397.10
2022-11-17T07:03:57.769Z,400.30
2022-11-17T07:06:24.168Z,396.07
2022-11-17T07:08:50.567Z,386.70
2022-11-17T07:11:16.953Z,378.00
2022-11-17T07:13:43.400Z,379.63
2022-11-17T07:16:09.809Z,392.60
2022-11-17T07:18:36.576Z,390.07
2022-11-17T07:21:09.153Z,395.97
2022-11-17T07:23:38.382Z,396.97
2022-11-17T07:26:04.823Z,375.83
2022-11-17T07:28:34.435Z,380.27
2022-11-17T07:31:01.029Z,373.57
2022-11-17T07:33:27.457Z,383.77
2022-11-17T07:36:02.616Z,367.57
2022-11-17T07:38:34.842Z,363.30
2022-11-17T07:41:10.720Z,358.47
2022-11-17T07:43:37.152Z,349.83
2022-11-17T07:46:03.553Z,346.13
2022-11-17T07:48:29.967Z,344.23
2022-11-17T07:50:56.364Z,337.20
2022-11-17T07:53:22.753Z,326.47
2022-11-17T07:55:49.145Z,311.77
2022-11-17T07:58:15.545Z,323.33
2022-11-17T08:00:41.973Z,305.93
2022-11-17T08:03:09.041Z,291.93
2022-11-17T08:05:41.556Z,299.77
2022-11-17T08:08:09.605Z,284.33
2022-11-17T08:10:36.009Z,280.40
2022-11-17T08:13:02.411Z,270.93
2022-11-17T08:15:28.827Z,266.40
2022-11-17T08:17:55.230Z,261.00
2022-11-17T08:20:21.680Z,270.47
2022-11-17T08:22:48.085Z,278.07
2022-11-17T08:25:14.615Z,261.47
2022-11-17T08:27:41.016Z,260.83
2022-11-17T08:30:07.622Z,257.23
2022-11-17T08:32:34.007Z,258.60
2022-11-17T08:35:00.422Z,263.77
2022-11-17T08:37:27.004Z,266.30
2022-11-17T08:39:53.499Z,259.13
2022-11-17T08:42:19.902Z,259.90
2022-11-17T08:44:46.332Z,248.57
2022-11-17T08:47:12.729Z,264.63
2022-11-17T08:49:39.151Z,258.53
2022-11-17T08:52:05.537Z,254.37
2022-11-17T08:54:31.937Z,258.07
2022-11-17T08:56:58.417Z,256.57
2022-11-17T08:59:24.858Z,247.47
2022-11-17T09:01:51.246Z,256.87
2022-11-17T09:04:17.647Z,261.77
2022-11-17T09:06:44.230Z,258.63
2022-11-17T09:09:10.695Z,260.53
2022-11-17T09:11:37.185Z,260.50
2022-11-17T09:14:03.590Z,259.60
2022-11-17T09:16:29.984Z,266.50
2022-11-17T09:18:56.399Z,257.73
2022-11-17T09:21:22.792Z,252.70
2022-11-17T09:23:49.231Z,254.37
2022-11-17T09:26:15.749Z,257.57
2022-11-17T09:28:42.165Z,252.70
2022-11-17T09:31:08.656Z,242.70
2022-11-17T09:33:35.093Z,253.63
2022-11-17T09:36:01.509Z,250.37
2022-11-17T09:38:27.917Z,249.80
2022-11-17T09:40:54.337Z,252.73
2022-11-17T09:43:20.750Z,258.27
2022-11-17T09:45:47.150Z,248.43
2022-11-17T09:48:39.544Z,253.27
2022-11-17T09:50:59.940Z,247.87
2022-11-17T09:53:26.349Z,252.13
2022-11-17T09:55:52.761Z,254.70
2022-11-17T09:58:19.148Z,244.70
2022-11-17T10:00:45.562Z,252.30
2022-11-17T10:03:11.957Z,228.03
2022-11-17T10:05:38.357Z,242.43
2022-11-17T10:08:04.745Z,245.90
2022-11-17T10:10:31.150Z,242.40
2022-11-17T10:12:57.549Z,244.87
2022-11-17T10:15:23.957Z,238.77
2022-11-17T10:17:50.366Z,241.47
2022-11-17T10:20:16.791Z,224.93
2022-11-17T10:22:43.774Z,215.03
2022-11-17T10:25:11.584Z,212.40
2022-11-17T10:27:38.165Z,208.00
2022-11-17T10:30:04.759Z,212.30
2022-11-17T10:32:31.156Z,214.93
2022-11-17T10:34:57.560Z,208.17
2022-11-17T10:37:23.948Z,210.30
2022-11-17T10:39:54.063Z,211.47
2022-11-17T10:42:20.576Z,208.30
2022-11-17T10:44:46.977Z,209.17
2022-11-17T10:47:13.379Z,214.47
2022-11-17T10:49:41.123Z,217.10
2022-11-17T10:52:07.712Z,226.50
2022-11-17T10:54:34.114Z,220.53
2022-11-17T10:57:00.505Z,225.37
2022-11-17T10:59:26.922Z,217.97
2022-11-17T11:01:53.313Z,215.43
2022-11-17T11:04:19.721Z,222.87
2022-11-17T11:06:46.106Z,220.80
2022-11-17T11:09:12.503Z,213.63
2022-11-17T11:11:38.889Z,216.10
2022-11-17T11:14:05.289Z,215.43
2022-11-17T11:16:31.688Z,219.57
2022-11-17T11:18:58.073Z,217.70
2022-11-17T11:21:24.571Z,217.37
2022-11-17T11:23:50.956Z,222.70
2022-11-17T11:26:17.351Z,215.57
2022-11-17T11:28:47.995Z,216.87
2022-11-17T11:31:16.485Z,218.27
2022-11-17T11:33:42.960Z,213.67
2022-11-17T11:36:09.355Z,216.17
2022-11-17T11:38:35.994Z,218.57
2022-11-17T11:41:02.456Z,217.63
2022-11-17T11:43:29.056Z,216.57
2022-11-17T11:45:55.464Z,216.27
2022-11-17T11:48:21.846Z,210.23
2022-11-17T11:50:48.243Z,216.23
2022-11-17T11:53:14.632Z,216.27
2022-11-17T11:55:41.019Z,215.47
2022-11-17T11:58:07.401Z,214.37
2022-11-17T12:00:33.958Z,213.23
2022-11-17T12:03:00.383Z,207.93
2022-11-17T12:05:26.850Z,210.00
2022-11-17T12:07:53.224Z,208.00
2022-11-17T12:10:19.630Z,205.33
2022-11-17T12:12:46.020Z,201.17
2022-11-17T12:15:12.618Z,210.80
2022-11-17T12:17:39.311Z,212.50
2022-11-17T12:20:10.661Z,214.30
2022-11-17T12:22:37.512Z,208.87
2022-11-17T12:25:03.929Z,214.97
2022-11-17T12:27:30.324Z,218.00
2022-11-17T12:29:56.726Z,212.20
2022-11-17T12:32:23.112Z,215.73
2022-11-17T12:34:49.512Z,219.00
2022-11-17T12:37:16.036Z,218.93
2022-11-17T12:39:42.425Z,211.83
2022-11-17T12:42:09.031Z,212.00
2022-11-17T12:44:35.439Z,215.07
2022-11-17T12:47:01.837Z,216.83
2022-11-17T12:49:28.229Z,211.90
2022-11-17T12:51:54.642Z,222.10
2022-11-17T12:54:21.031Z,221.23
2022-11-17T12:56:47.445Z,210.90
2022-11-17T12:59:13.828Z,212.63
2022-11-17T13:01:40.306Z,209.57
2022-11-17T13:04:09.614Z,210.60
2022-11-17T13:06:37.022Z,212.87
2022-11-17T13:09:03.748Z,210.47
2022-11-17T13:11:30.158Z,215.83
2022-11-17T13:13:56.540Z,215.37
2022-11-17T13:16:22.949Z,210.33
2022-11-17T13:18:49.349Z,218.83
2022-11-17T13:21:15.760Z,211.67
2022-11-17T13:23:42.184Z,214.93
2022-11-17T13:26:08.618Z,213.57
2022-11-17T13:28:35.009Z,217.00
2022-11-17T13:31:01.405Z,219.70
2022-11-17T13:33:27.798Z,224.97
2022-11-17T13:35:54.200Z,218.37
2022-11-17T13:38:20.603Z,222.20
2022-11-17T13:40:47.022Z,218.73
2022-11-17T13:43:13.613Z,223.23
2022-11-17T13:45:40.003Z,227.43
2022-11-17T13:48:06.398Z,220.30
2022-11-17T13:50:32.801Z,223.57
2022-11-17T13:52:59.379Z,227.93
2022-11-17T13:55:25.786Z,230.80
2022-11-17T13:57:52.160Z,228.43
2022-11-17T14:00:18.561Z,231.70
2022-11-17T14:02:44.966Z,234.63
2022-11-17T14:05:11.357Z,244.80
2022-11-17T14:07:37.855Z,239.97
2022-11-17T14:10:08.227Z,244.67
2022-11-17T14:12:37.621Z,239.97
2022-11-17T14:15:04.000Z,234.67
2022-11-17T14:17:30.407Z,242.23
2022-11-17T14:19:56.808Z,254.70
2022-11-17T14:22:29.529Z,240.57
2022-11-17T14:24:57.580Z,240.27
2022-11-17T14:27:23.977Z,221.83
2022-11-17T14:29:50.387Z,233.60
2022-11-17T14:32:16.813Z,232.50
2022-11-17T14:34:43.202Z,213.60
2022-11-17T14:37:10.523Z,222.37
2022-11-17T14:39:38.063Z,219.57
2022-11-17T14:42:04.460Z,212.60
2022-11-17T14:44:30.889Z,212.60
2022-11-17T14:46:57.444Z,207.73
2022-11-17T14:49:23.857Z,207.50
2022-11-17T14:51:50.483Z,210.07
2022-11-17T14:54:16.905Z,211.50
2022-11-17T14:56:43.324Z,203.47
2022-11-17T14:59:09.747Z,208.50
2022-11-17T15:01:36.150Z,207.17
2022-11-17T15:04:20.683Z,208.93
2022-11-17T15:06:48.900Z,204.67
2022-11-17T15:09:15.280Z,208.90
2022-11-17T15:11:41.837Z,204.40
2022-11-17T15:14:08.245Z,205.57
2022-11-17T15:16:34.633Z,225.97
2022-11-17T15:19:01.096Z,224.87
2022-11-17T15:21:27.509Z,234.87
2022-11-17T15:23:53.959Z,229.43
2022-11-17T15:26:20.389Z,233.10
2022-11-17T15:28:46.778Z,232.17
2022-11-17T15:31:13.170Z,237.93
2022-11-17T15:33:42.806Z,234.47
2022-11-17T15:36:09.249Z,233.47
2022-11-17T15:38:35.643Z,238.20
2022-11-17T15:41:02.050Z,239.77
2022-11-17T15:43:28.433Z,230.20
2022-11-17T15:45:54.860Z,225.53
2022-11-17T15:48:21.290Z,229.33
2022-11-17T15:50:47.705Z,228.97
2022-11-17T15:53:14.110Z,238.00
2022-11-17T15:55:40.488Z,236.20
2022-11-17T15:58:06.903Z,238.90
2022-11-17T16:00:33.386Z,237.40
2022-11-17T16:02:59.808Z,235.97
2022-11-17T16:05:26.200Z,229.17
2022-11-17T16:07:52.692Z,230.97
2022-11-17T16:10:19.196Z,232.57
2022-11-17T16:12:45.744Z,233.27
2022-11-17T16:15:12.159Z,237.47
2022-11-17T16:17:38.759Z,242.90
2022-11-17T16:20:05.244Z,235.27
2022-11-17T16:22:31.784Z,234.63
2022-11-17T16:24:58.209Z,239.73
2022-11-17T16:27:24.605Z,240.77
2022-11-17T16:29:51.001Z,237.40
2022-11-17T16:32:17.410Z,235.60
2022-11-17T16:34:43.802Z,239.17
2022-11-17T16:37:10.213Z,239.60
2022-11-17T16:39:36.617Z,238.57
2022-11-17T16:42:03.009Z,237.77
2022-11-17T16:44:29.479Z,216.43
2022-11-17T16:46:55.901Z,210.23
2022-11-17T16:49:22.359Z,213.67
2022-11-17T16:51:48.763Z,211.77
2022-11-17T16:54:15.185Z,215.93
2022-11-17T16:56:41.584Z,217.00
2022-11-17T16:59:07.992Z,219.77
2022-11-17T17:01:34.398Z,218.50
2022-11-17T17:04:00.790Z,212.63
2022-11-17T17:06:27.212Z,208.93
2022-11-17T17:08:53.640Z,215.73
2022-11-17T17:11:20.058Z,215.13
2022-11-17T17:13:46.460Z,224.60
2022-11-17T17:16:12.871Z,222.27
2022-11-17T17:18:40.390Z,216.40
2022-11-17T17:21:06.809Z,226.13
2022-11-17T17:23:33.220Z,230.73
2022-11-17T17:25:59.651Z,238.60
2022-11-17T17:28:26.067Z,234.67
2022-11-17T17:30:52.463Z,233.70
2022-11-17T17:33:18.855Z,237.17
2022-11-17T17:35:45.240Z,237.47
2022-11-17T17:38:11.654Z,239.23
2022-11-17T17:40:38.072Z,239.23
2022-11-17T17:43:04.513Z,246.67
2022-11-17T17:45:30.915Z,245.23
2022-11-17T17:47:57.331Z,242.37
2022-11-17T17:50:23.719Z,246.07
2022-11-17T17:52:50.133Z,250.83
2022-11-17T17:55:16.538Z,254.03
2022-11-17T17:57:42.953Z,249.83
2022-11-17T18:00:09.378Z,258.17
2022-11-17T18:02:35.805Z,248.17
2022-11-17T18:05:02.208Z,256.10
2022-11-17T18:07:28.657Z,252.93
2022-11-17T18:09:55.129Z,256.83
2022-11-17T18:12:21.537Z,260.43
2022-11-17T18:14:47.923Z,259.50
2022-11-17T18:17:14.324Z,261.67
2022-11-17T18:19:40.707Z,253.43
2022-11-17T18:22:07.134Z,253.73
2022-11-17T18:24:33.540Z,249.90
2022-11-17T18:26:59.944Z,259.60
2022-11-17T18:29:26.337Z,258.63
2022-11-17T18:31:52.765Z,258.00
2022-11-17T18:34:19.174Z,257.87
2022-11-17T18:36:45.580Z,261.97
2022-11-17T18:39:11.961Z,264.27
2022-11-17T18:41:38.347Z,257.93
2022-11-17T18:44:04.756Z,263.67
2022-11-17T18:46:31.166Z,260.73
2022-11-17T18:48:57.579Z,261.13
2022-11-17T18:51:23.974Z,257.73
2022-11-17T18:53:50.417Z,264.53
2022-11-17T18:56:16.802Z,255.43
2022-11-17T18:58:43.207Z,271.37
2022-11-17T19:01:09.677Z,271.77
2022-11-17T19:03:36.131Z,254.87
2022-11-17T19:06:02.520Z,271.67
2022-11-17T19:08:28.960Z,267.67
2022-11-17T19:10:55.353Z,267.77
2022-11-17T19:13:21.800Z,271.77
2022-11-17T19:15:48.223Z,276.93
2022-11-17T19:18:15.669Z,270.73
2022-11-17T19:20:42.062Z,278.60
2022-11-17T19:23:08.460Z,281.97
2022-11-17T19:25:34.866Z,276.60
2022-11-17T19:28:01.257Z,273.63
2022-11-17T19:30:27.658Z,263.53
2022-11-17T19:32:54.067Z,275.30
2022-11-17T19:35:22.869Z,268.27
2022-11-17T19:37:49.412Z,282.53
2022-11-17T19:40:15.826Z,279.87
2022-11-17T19:42:42.235Z,276.83
2022-11-17T19:45:08.706Z,284.47
2022-11-17T19:47:35.254Z,269.33
2022-11-17T19:50:01.637Z,286.73
2022-11-17T19:52:28.194Z,286.77
2022-11-17T19:54:54.605Z,515.47
2022-11-17T19:57:20.997Z,353.00
2022-11-17T19:59:47.392Z,318.40
2022-11-17T20:02:13.797Z,308.40
2022-11-17T20:04:40.184Z,308.40
2022-11-17T20:07:06.621Z,305.07
2022-11-17T20:09:33.041Z,299.70
2022-11-17T20:11:59.447Z,299.90
2022-11-17T20:14:25.861Z,296.33
2022-11-17T20:16:52.337Z,299.33
2022-11-17T20:19:19.003Z,296.30
2022-11-17T20:21:45.861Z,306.93
2022-11-17T20:24:12.294Z,300.70
2022-11-17T20:26:38.692Z,294.60
2022-11-17T20:29:05.096Z,285.43
2022-11-17T20:31:31.490Z,285.90
2022-11-17T20:33:57.913Z,298.77
2022-11-17T20:36:24.313Z,295.67
2022-11-17T20:38:50.732Z,294.47
2022-11-17T20:41:17.133Z,295.43
2022-11-17T20:43:43.520Z,303.20
2022-11-17T20:46:09.907Z,293.83
2022-11-17T20:48:36.313Z,293.50
2022-11-17T20:51:02.708Z,292.87
2022-11-17T20:53:29.145Z,307.63
2022-11-17T20:55:55.537Z,289.07
2022-11-17T20:58:21.941Z,296.50
2022-11-17T21:00:48.608Z,292.03
2022-11-17T21:03:15.032Z,299.57
2022-11-17T21:05:41.431Z,295.53
2022-11-17T21:08:07.845Z,285.13
2022-11-17T21:10:34.246Z,305.33
2022-11-17T21:13:00.657Z,293.00
2022-11-17T21:15:27.055Z,283.87
2022-11-17T21:17:53.525Z,298.37
2022-11-17T21:20:19.984Z,302.80
2022-11-17T21:22:46.396Z,303.90
2022-11-17T21:25:12.779Z,305.83
2022-11-17T21:27:39.209Z,294.40
2022-11-17T21:30:05.795Z,298.23
2022-11-17T21:32:32.198Z,299.97
2022-11-17T21:34:58.587Z,294.00
2022-11-17T21:37:24.995Z,301.63
2022-11-17T21:39:51.585Z,306.67
2022-11-17T21:42:18.006Z,296.17
2022-11-17T21:44:44.602Z,303.27
2022-11-17T21:47:11.009Z,304.17
2022-11-17T21:49:37.394Z,298.63
2022-11-17T21:52:03.802Z,296.43
2022-11-17T21:54:30.196Z,295.40
2022-11-17T21:56:56.580Z,296.50
2022-11-17T21:59:22.986Z,299.57
2022-11-17T22:01:49.380Z,301.63
2022-11-17T22:04:15.833Z,303.33
2022-11-17T22:06:42.259Z,299.20
2022-11-17T22:09:08.635Z,295.40
2022-11-17T22:11:35.297Z,294.90
2022-11-17T22:14:02.072Z,307.60
2022-11-17T22:16:28.482Z,287.67
2022-11-17T22:18:54.902Z,299.83
2022-11-17T22:21:21.293Z,303.40
2022-11-17T22:23:47.730Z,301.47
2022-11-17T22:26:14.142Z,302.23
2022-11-17T22:28:40.555Z,309.77
2022-11-17T22:31:06.945Z,290.50
2022-11-17T22:33:33.368Z,304.07
2022-11-17T22:35:59.759Z,300.53
2022-11-17T22:38:26.152Z,300.90
2022-11-17T22:40:52.527Z,293.70
2022-11-17T22:43:18.926Z,304.53
2022-11-17T22:45:45.309Z,303.83
2022-11-17T22:48:11.728Z,297.67
2022-11-17T22:50:38.112Z,298.37
2022-11-17T22:53:04.519Z,301.10
2022-11-17T22:55:30.918Z,303.40
2022-11-17T22:57:57.321Z,301.70
2022-11-17T23:00:23.715Z,300.97
2022-11-17T23:02:50.224Z,298.47
2022-11-17T23:05:16.671Z,293.73
2022-11-17T23:07:43.180Z,302.60
2022-11-17T23:10:09.692Z,309.63
2022-11-17T23:12:36.091Z,306.73
2022-11-17T23:15:02.497Z,303.13
2022-11-17T23:17:28.901Z,308.43
2022-11-17T23:19:55.496Z,297.63
2022-11-17T23:22:21.910Z,300.30
2022-11-17T23:24:48.315Z,290.33
2022-11-17T23:27:14.730Z,299.50
2022-11-17T23:29:41.327Z,303.43
2022-11-17T23:32:07.908Z,305.77
2022-11-17T23:34:34.325Z,307.13
2022-11-17T23:37:03.764Z,298.07
2022-11-17T23:39:30.569Z,300.60
2022-11-17T23:41:56.958Z,302.97
2022-11-17T23:44:23.408Z,307.23
2022-11-17T23:46:49.822Z,305.20
2022-11-17T23:49:16.718Z,305.13
2022-11-17T23:51:43.317Z,304.23
2022-11-17T23:54:09.730Z,298.77
2022-11-17T23:56:36.120Z,301.80
2022-11-17T23:59:02.523Z,317.20
